createdAt,value
2017-04-18T00:00:19.751Z,6.35
2017-04-18T00:01:18.275Z,6.17
2017-04-18T00:02:16.810Z,6.34
2017-04-18T00:03:15.378Z,6.35
2017-04-18T00:04:13.940Z,6.37
2017-04-18T00:05:12.517Z,6.27
2017-04-18T00:06:11.431Z,6.23
2017-04-18T00:07:09.965Z,6.33
2017-04-18T00:08:08.546Z,6.34
2017-04-18T00:09:07.642Z,6.29
2017-04-18T00:10:06.203Z,6.35
2017-04-18T00:11:04.729Z,6.24
2017-04-18T00:12:03.571Z,6.29
2017-04-18T00:13:02.193Z,6.40
2017-04-18T00:14:00.755Z,6.30
2017-04-18T00:14:59.271Z,6.26
2017-04-18T00:15:57.848Z,6.35
2017-04-18T00:16:56.380Z,6.30
2017-04-18T00:17:55.054Z,6.35
2017-04-18T00:18:53.624Z,6.27
2017-04-18T00:19:52.225Z,6.32
2017-04-18T00:20:50.948Z,6.32
2017-04-18T00:21:49.588Z,6.19
2017-04-18T00:22:48.111Z,6.32
2017-04-18T00:23:46.688Z,6.29
2017-04-18T00:24:45.181Z,6.33
2017-04-18T00:25:43.781Z,6.30
2017-04-18T00:26:42.311Z,6.14
2017-04-18T00:27:40.997Z,6.24
2017-04-18T00:28:39.632Z,6.29
2017-04-18T00:29:38.587Z,6.19
2017-04-18T00:30:37.110Z,6.17
2017-04-18T00:31:35.607Z,6.37
2017-04-18T00:32:34.199Z,6.24
2017-04-18T00:33:32.744Z,6.30
2017-04-18T00:34:31.259Z,6.05
2017-04-18T00:35:29.868Z,6.10
2017-04-18T00:36:28.403Z,6.12
2017-04-18T00:37:26.986Z,6.07
2017-04-18T00:38:25.575Z,5.97
2017-04-18T00:39:24.079Z,6.05
2017-04-18T00:40:22.614Z,6.01
2017-04-18T00:41:21.994Z,6.03
2017-04-18T00:42:20.503Z,6.03
2017-04-18T00:43:19.051Z,6.16
2017-04-18T00:44:17.627Z,6.05
2017-04-18T00:45:16.142Z,5.79
2017-04-18T00:46:14.705Z,5.74
2017-04-18T00:47:13.707Z,5.86
2017-04-18T00:48:12.218Z,6.00
2017-04-18T00:49:10.716Z,5.98
2017-04-18T00:50:09.335Z,5.99
2017-04-18T00:51:07.908Z,6.04
2017-04-18T00:52:06.434Z,6.02
2017-04-18T00:53:05.395Z,6.06
2017-04-18T00:54:03.928Z,6.03
2017-04-18T00:55:02.587Z,6.05
2017-04-18T00:56:01.156Z,6.02
2017-04-18T00:56:59.667Z,5.96
2017-04-18T00:57:58.259Z,5.88
2017-04-18T00:58:57.132Z,5.87
2017-04-18T00:59:55.800Z,5.90
2017-04-18T01:00:54.418Z,5.87
2017-04-18T01:01:53.068Z,5.83
2017-04-18T01:02:51.635Z,5.78
2017-04-18T01:03:50.320Z,5.79
2017-04-18T01:04:49.391Z,5.81
2017-04-18T01:05:47.933Z,5.80
2017-04-18T01:06:46.502Z,5.81
2017-04-18T01:07:51.523Z,5.79
2017-04-18T01:08:50.099Z,5.79
2017-04-18T01:09:48.699Z,5.86
2017-04-18T01:10:47.235Z,5.74
2017-04-18T01:11:46.029Z,5.64
2017-04-18T01:12:44.567Z,5.62
2017-04-18T01:13:43.065Z,5.59
2017-04-18T01:14:41.719Z,5.54
2017-04-18T01:15:40.600Z,5.53
2017-04-18T01:16:39.243Z,5.47
2017-04-18T01:17:37.711Z,5.57
2017-04-18T01:18:36.187Z,5.60
2017-04-18T01:19:34.748Z,5.60
2017-04-18T01:20:33.253Z,5.60
2017-04-18T01:21:32.239Z,5.59
2017-04-18T01:22:30.775Z,5.55
2017-04-18T01:23:29.304Z,5.53
2017-04-18T01:24:27.832Z,5.58
2017-04-18T01:25:26.404Z,5.42
2017-04-18T01:26:25.041Z,5.39
2017-04-18T01:27:24.029Z,5.54
2017-04-18T01:28:22.537Z,5.51
2017-04-18T01:29:21.071Z,5.56
2017-04-18T01:30:19.594Z,5.55
2017-04-18T01:31:18.119Z,5.57
2017-04-18T01:32:16.740Z,5.71
2017-04-18T01:33:15.655Z,5.70
2017-04-18T01:34:14.242Z,5.68
2017-04-18T01:35:12.903Z,5.64
2017-04-18T01:36:11.574Z,5.78
2017-04-18T01:37:10.190Z,5.64
2017-04-18T01:38:08.866Z,5.61
2017-04-18T01:39:07.747Z,5.67
2017-04-18T01:40:11.413Z,5.73
2017-04-18T01:42:17.852Z,5.81
2017-04-18T01:43:21.805Z,5.64
2017-04-18T01:44:26.026Z,5.45
2017-04-18T01:46:30.459Z,5.57
2017-04-18T01:47:28.988Z,5.48
2017-04-18T01:48:27.542Z,5.47
2017-04-18T01:49:26.448Z,5.57
2017-04-18T01:50:24.946Z,5.40
2017-04-18T01:51:23.511Z,5.50
2017-04-18T01:52:22.027Z,5.45
2017-04-18T01:53:20.519Z,5.40
2017-04-18T01:54:19.064Z,5.48
2017-04-18T01:55:17.992Z,5.60
2017-04-18T01:56:16.492Z,5.67
2017-04-18T01:57:15.115Z,5.67
2017-04-18T01:58:13.787Z,5.68
2017-04-18T01:59:12.375Z,5.66
2017-04-18T02:00:10.996Z,5.47
2017-04-18T02:01:10.035Z,5.43
2017-04-18T02:02:08.603Z,5.45
2017-04-18T02:03:07.168Z,5.61
2017-04-18T02:04:05.707Z,5.47
2017-04-18T02:05:04.233Z,5.37
2017-04-18T02:06:02.849Z,5.39
2017-04-18T02:07:01.784Z,5.39
2017-04-18T02:08:00.442Z,5.44
2017-04-18T02:08:58.972Z,5.29
2017-04-18T02:09:57.564Z,5.35
2017-04-18T02:10:56.119Z,5.41
2017-04-18T02:11:54.670Z,5.41
2017-04-18T02:12:53.239Z,5.25
2017-04-18T02:13:51.816Z,5.27
2017-04-18T02:14:50.356Z,5.45
2017-04-18T02:15:48.888Z,5.28
2017-04-18T02:16:47.407Z,5.41
2017-04-18T02:17:45.991Z,5.27
2017-04-18T02:18:44.963Z,5.46
2017-04-18T02:19:43.526Z,5.49
2017-04-18T02:20:42.058Z,5.44
2017-04-18T02:21:40.561Z,5.54
2017-04-18T02:22:39.127Z,5.62
2017-04-18T02:23:37.614Z,5.46
2017-04-18T02:24:36.351Z,5.42
2017-04-18T02:25:34.898Z,5.41
2017-04-18T02:26:33.426Z,5.55
2017-04-18T02:27:31.955Z,5.55
2017-04-18T02:28:30.514Z,5.55
2017-04-18T02:29:29.108Z,5.48
2017-04-18T02:30:28.037Z,5.38
2017-04-18T02:31:26.533Z,5.32
2017-04-18T02:32:25.195Z,5.37
2017-04-18T02:33:23.732Z,5.31
2017-04-18T02:34:22.274Z,5.32
2017-04-18T02:35:20.786Z,5.30
2017-04-18T02:36:19.668Z,5.22
2017-04-18T02:37:18.289Z,5.22
2017-04-18T02:38:16.936Z,5.27
2017-04-18T02:39:15.454Z,5.32
2017-04-18T02:40:14.016Z,5.30
2017-04-18T02:41:12.542Z,5.31
2017-04-18T02:42:11.164Z,5.34
2017-04-18T02:43:09.700Z,5.25
2017-04-18T02:44:08.252Z,5.32
2017-04-18T02:45:06.887Z,5.34
2017-04-18T02:46:05.422Z,5.41
2017-04-18T02:47:03.949Z,5.54
2017-04-18T02:48:02.775Z,5.38
2017-04-18T02:49:01.298Z,5.41
2017-04-18T02:49:59.824Z,5.26
2017-04-18T02:50:58.398Z,5.35
2017-04-18T02:51:56.967Z,5.33
2017-04-18T02:52:55.483Z,5.39
2017-04-18T02:53:54.030Z,5.34
2017-04-18T02:54:52.530Z,5.33
2017-04-18T02:55:51.121Z,5.28
2017-04-18T02:56:49.727Z,5.25
2017-04-18T02:57:48.228Z,5.25
2017-04-18T02:58:46.933Z,5.24
2017-04-18T02:59:45.766Z,5.36
2017-04-18T03:00:44.359Z,5.27
2017-04-18T03:01:42.991Z,5.27
2017-04-18T03:02:41.608Z,5.28
2017-04-18T03:03:40.163Z,5.34
2017-04-18T03:04:38.663Z,5.27
2017-04-18T03:05:37.601Z,5.33
2017-04-18T03:06:36.215Z,5.38
2017-04-18T03:07:34.851Z,5.22
2017-04-18T03:08:33.611Z,5.20
2017-04-18T03:09:32.135Z,5.23
2017-04-18T03:10:30.651Z,5.18
2017-04-18T03:11:29.331Z,5.15
2017-04-18T03:12:27.828Z,5.10
2017-04-18T03:13:26.452Z,5.18
2017-04-18T03:14:25.017Z,5.20
2017-04-18T03:15:23.549Z,5.15
2017-04-18T03:16:22.058Z,5.13
2017-04-18T03:17:21.081Z,5.03
2017-04-18T03:18:19.650Z,5.02
2017-04-18T03:19:18.151Z,5.10
2017-04-18T03:20:16.647Z,5.10
2017-04-18T03:21:15.128Z,5.15
2017-04-18T03:22:13.623Z,5.07
2017-04-18T03:23:12.542Z,5.08
2017-04-18T03:24:11.055Z,5.03
2017-04-18T03:25:09.543Z,4.99
2017-04-18T03:26:08.043Z,5.04
2017-04-18T03:27:06.535Z,5.05
2017-04-18T03:28:05.138Z,5.10
2017-04-18T03:29:04.031Z,5.09
2017-04-18T03:30:02.615Z,5.15
2017-04-18T03:31:01.147Z,5.13
2017-04-18T03:31:59.650Z,5.04
2017-04-18T03:32:58.150Z,5.00
2017-04-18T03:33:56.690Z,5.03
2017-04-18T03:34:55.496Z,4.95
2017-04-18T03:35:53.999Z,4.89
2017-04-18T03:36:52.490Z,4.88
2017-04-18T03:37:50.998Z,4.85
2017-04-18T03:38:49.558Z,4.89
2017-04-18T03:39:48.176Z,4.85
2017-04-18T03:40:47.135Z,4.74
2017-04-18T03:41:45.628Z,4.72
2017-04-18T03:42:44.197Z,4.75
2017-04-18T03:43:42.739Z,4.87
2017-04-18T03:44:41.339Z,4.93
2017-04-18T03:45:39.947Z,4.85
2017-04-18T03:46:38.778Z,4.83
2017-04-18T03:47:37.331Z,4.80
2017-04-18T03:48:35.940Z,4.79
2017-04-18T03:49:34.435Z,4.90
2017-04-18T03:50:33.608Z,4.83
2017-04-18T03:51:32.274Z,4.81
2017-04-18T03:52:31.240Z,4.74
2017-04-18T03:53:29.787Z,4.66
2017-04-18T03:54:28.288Z,4.60
2017-04-18T03:55:26.851Z,4.75
2017-04-18T03:56:25.411Z,4.73
2017-04-18T03:57:23.940Z,4.76
2017-04-18T03:58:22.478Z,4.86
2017-04-18T03:59:20.982Z,4.73
2017-04-18T04:00:19.615Z,4.75
2017-04-18T04:01:18.162Z,4.77
2017-04-18T04:02:16.754Z,4.64
2017-04-18T04:03:15.610Z,4.60
2017-04-18T04:04:14.176Z,4.66
2017-04-18T04:05:12.699Z,4.88
2017-04-18T04:06:11.205Z,4.91
2017-04-18T04:07:09.734Z,4.99
2017-04-18T04:08:08.250Z,4.93
2017-04-18T04:09:06.855Z,4.87
2017-04-18T04:10:05.477Z,4.83
2017-04-18T04:11:04.064Z,4.77
2017-04-18T04:12:02.559Z,4.82
2017-04-18T04:13:01.054Z,4.84
2017-04-18T04:13:59.979Z,4.80
2017-04-18T04:14:58.529Z,4.79
2017-04-18T04:15:57.023Z,4.91
2017-04-18T04:16:55.563Z,4.75
2017-04-18T04:17:54.170Z,4.74
2017-04-18T04:18:52.728Z,4.77
2017-04-18T04:19:51.275Z,4.90
2017-04-18T04:20:49.781Z,4.94
2017-04-18T04:21:48.313Z,4.79
2017-04-18T04:22:46.822Z,4.82
2017-04-18T04:23:45.404Z,4.79
2017-04-18T04:24:44.239Z,4.68
2017-04-18T04:25:42.978Z,4.78
2017-04-18T04:26:41.464Z,4.80
2017-04-18T04:27:39.924Z,4.77
2017-04-18T04:28:38.432Z,4.82
2017-04-18T04:29:36.972Z,4.60
2017-04-18T04:30:35.607Z,4.47
2017-04-18T04:31:34.203Z,4.40
2017-04-18T04:32:32.880Z,4.34
2017-04-18T04:33:31.436Z,4.45
2017-04-18T04:34:29.934Z,4.58
2017-04-18T04:35:28.507Z,4.59
2017-04-18T04:36:27.027Z,4.56
2017-04-18T04:37:25.586Z,4.67
2017-04-18T04:38:24.238Z,4.65
2017-04-18T04:39:22.864Z,4.63
2017-04-18T04:40:21.519Z,4.60
2017-04-18T04:41:20.047Z,4.59
2017-04-18T04:42:18.564Z,4.50
2017-04-18T04:43:17.068Z,4.40
2017-04-18T04:44:15.599Z,4.37
2017-04-18T04:45:14.113Z,4.42
2017-04-18T04:46:12.956Z,4.51
2017-04-18T04:47:11.542Z,4.69
2017-04-18T04:48:10.136Z,4.59
2017-04-18T04:49:08.678Z,4.52
2017-04-18T04:50:07.187Z,4.67
2017-04-18T04:51:05.705Z,4.57
2017-04-18T04:52:04.450Z,4.66
2017-04-18T04:53:02.980Z,4.53
2017-04-18T04:54:01.487Z,4.57
2017-04-18T04:54:59.981Z,4.43
2017-04-18T04:55:58.547Z,4.53
2017-04-18T04:56:57.060Z,4.65
2017-04-18T04:57:55.824Z,4.63
2017-04-18T04:58:54.334Z,4.59
2017-04-18T04:59:52.955Z,4.84
2017-04-18T05:00:51.503Z,4.71
2017-04-18T05:01:50.023Z,4.71
2017-04-18T05:02:48.542Z,4.71
2017-04-18T05:03:47.268Z,4.62
2017-04-18T05:04:45.776Z,4.70
2017-04-18T05:05:44.329Z,4.79
2017-04-18T05:06:42.940Z,4.67
2017-04-18T05:07:41.524Z,4.65
2017-04-18T05:08:40.020Z,4.67
2017-04-18T05:09:38.707Z,4.67
2017-04-18T05:10:37.227Z,4.87
2017-04-18T05:11:35.776Z,4.87
2017-04-18T05:12:34.296Z,4.84
2017-04-18T05:13:32.816Z,4.88
2017-04-18T05:14:31.325Z,4.92
2017-04-18T05:15:29.902Z,5.01
2017-04-18T05:16:28.443Z,4.92
2017-04-18T05:17:27.049Z,4.79
2017-04-18T05:18:25.538Z,4.87
2017-04-18T05:19:24.022Z,4.83
2017-04-18T05:20:22.559Z,4.94
2017-04-18T05:21:21.375Z,4.97
2017-04-18T05:22:20.832Z,4.80
2017-04-18T05:23:19.460Z,4.75
2017-04-18T05:24:18.075Z,4.70
2017-04-18T05:25:16.575Z,4.77
2017-04-18T05:26:15.064Z,4.78
2017-04-18T05:27:13.615Z,4.71
2017-04-18T05:28:12.091Z,4.71
2017-04-18T05:29:10.655Z,4.78
2017-04-18T05:30:09.343Z,4.80
2017-04-18T05:31:07.983Z,4.85
2017-04-18T05:32:06.694Z,4.89
2017-04-18T05:33:05.199Z,4.88
2017-04-18T05:34:03.859Z,4.90
2017-04-18T05:35:02.413Z,4.89
2017-04-18T05:36:01.064Z,4.96
2017-04-18T05:36:59.719Z,4.94
2017-04-18T05:37:58.559Z,4.92
2017-04-18T05:38:57.072Z,4.92
2017-04-18T05:39:55.591Z,4.83
2017-04-18T05:40:54.117Z,4.90
2017-04-18T05:41:52.678Z,4.90
2017-04-18T05:42:51.382Z,4.71
2017-04-18T05:43:50.194Z,4.80
2017-04-18T05:44:48.728Z,4.81
2017-04-18T05:45:47.523Z,4.92
2017-04-18T05:46:46.056Z,4.94
2017-04-18T05:47:44.602Z,5.00
2017-04-18T05:48:43.242Z,5.00
2017-04-18T05:49:42.179Z,5.03
2017-04-18T05:50:40.736Z,4.90
2017-04-18T05:51:39.337Z,4.88
2017-04-18T05:52:38.230Z,4.84
2017-04-18T05:53:37.098Z,4.86
2017-04-18T05:54:36.405Z,5.00
2017-04-18T05:55:37.274Z,5.05
2017-04-18T05:56:35.972Z,5.16
2017-04-18T05:57:34.494Z,5.24
2017-04-18T05:58:33.135Z,5.27
2017-04-18T05:59:31.691Z,5.17
2017-04-18T06:00:30.236Z,5.05
2017-04-18T06:01:28.947Z,5.13
2017-04-18T06:02:27.457Z,5.17
2017-04-18T06:03:25.954Z,5.22
2017-04-18T06:04:24.469Z,5.36
2017-04-18T06:05:23.060Z,5.26
2017-04-18T06:06:21.639Z,5.23
2017-04-18T06:07:20.539Z,5.09
2017-04-18T06:08:19.122Z,4.96
2017-04-18T06:09:17.662Z,4.92
2017-04-18T06:10:16.255Z,4.93
2017-04-18T06:11:14.855Z,4.90
2017-04-18T06:12:13.407Z,4.97
2017-04-18T06:13:12.097Z,4.99
2017-04-18T06:14:10.598Z,4.82
2017-04-18T06:15:09.215Z,4.84
2017-04-18T06:16:07.735Z,4.88
2017-04-18T06:17:06.238Z,4.95
2017-04-18T06:18:04.749Z,4.92
2017-04-18T06:19:03.439Z,5.09
2017-04-18T06:20:01.963Z,5.11
2017-04-18T06:21:00.612Z,5.10
2017-04-18T06:21:59.222Z,5.24
2017-04-18T06:22:57.763Z,5.24
2017-04-18T06:23:56.333Z,5.25
2017-04-18T06:24:55.015Z,5.26
2017-04-18T06:25:53.737Z,5.25
2017-04-18T06:26:52.303Z,5.16
2017-04-18T06:27:50.834Z,5.28
2017-04-18T06:28:49.347Z,5.32
2017-04-18T06:29:47.894Z,5.23
2017-04-18T06:30:46.588Z,5.25
2017-04-18T06:31:45.151Z,5.43
2017-04-18T06:32:43.803Z,5.29
2017-04-18T06:33:42.436Z,5.30
2017-04-18T06:34:41.015Z,5.42
2017-04-18T06:35:39.542Z,5.35
2017-04-18T06:36:38.342Z,5.38
2017-04-18T06:37:36.963Z,5.40
2017-04-18T06:38:35.496Z,5.36
2017-04-18T06:39:34.052Z,5.33
2017-04-18T06:40:32.559Z,5.31
2017-04-18T06:41:31.131Z,5.38
2017-04-18T06:42:29.891Z,5.51
2017-04-18T06:43:28.414Z,5.57
2017-04-18T06:44:27.056Z,5.56
2017-04-18T06:45:25.663Z,5.51
2017-04-18T06:46:24.238Z,5.62
2017-04-18T06:47:22.735Z,5.52
2017-04-18T06:48:21.435Z,5.59
2017-04-18T06:49:19.988Z,5.72
2017-04-18T06:50:18.507Z,5.75
2017-04-18T06:51:16.999Z,5.74
2017-04-18T06:52:15.999Z,5.75
2017-04-18T06:53:14.532Z,5.79
2017-04-18T06:54:13.277Z,5.81
2017-04-18T06:55:11.823Z,5.87
2017-04-18T06:56:10.395Z,5.91
2017-04-18T06:57:11.023Z,5.86
2017-04-18T06:58:09.675Z,5.81
2017-04-18T06:59:08.196Z,5.87
2017-04-18T07:00:06.754Z,5.83
2017-04-18T07:01:05.269Z,5.87
2017-04-18T07:02:03.836Z,5.91
2017-04-18T07:03:14.045Z,6.04
2017-04-18T07:04:12.816Z,6.21
2017-04-18T07:05:11.623Z,6.22
2017-04-18T07:06:10.265Z,6.12
2017-04-18T07:07:08.790Z,6.20
2017-04-18T07:08:07.383Z,6.07
2017-04-18T07:09:07.431Z,6.16
2017-04-18T07:10:05.986Z,6.18
2017-04-18T07:11:05.038Z,6.25
2017-04-18T07:12:03.696Z,6.31
2017-04-18T07:13:02.250Z,6.31
2017-04-18T07:14:00.790Z,6.26
2017-04-18T07:14:59.321Z,6.14
2017-04-18T07:15:57.866Z,6.30
2017-04-18T07:16:56.412Z,6.40
2017-04-18T07:17:54.929Z,6.34
2017-04-18T07:18:53.480Z,6.34
2017-04-18T07:19:52.003Z,6.48
2017-04-18T07:20:50.558Z,6.52
2017-04-18T07:21:49.395Z,6.47
2017-04-18T07:22:48.089Z,6.44
2017-04-18T07:23:46.614Z,6.39
2017-04-18T07:24:45.179Z,6.44
2017-04-18T07:25:43.777Z,6.62
2017-04-18T07:26:42.415Z,6.68
2017-04-18T07:27:41.452Z,6.63
2017-04-18T07:28:40.040Z,6.49
2017-04-18T07:29:38.574Z,6.55
2017-04-18T07:30:37.099Z,6.66
2017-04-18T07:31:35.827Z,6.73
2017-04-18T07:32:34.400Z,6.72
2017-04-18T07:33:33.334Z,6.76
2017-04-18T07:34:32.040Z,6.73
2017-04-18T07:35:30.712Z,6.60
2017-04-18T07:36:29.291Z,6.71
2017-04-18T07:37:27.872Z,6.80
2017-04-18T07:38:26.460Z,6.83
2017-04-18T07:39:25.169Z,6.82
2017-04-18T07:40:23.717Z,6.99
2017-04-18T07:41:22.220Z,6.99
2017-04-18T07:42:20.785Z,7.07
2017-04-18T07:43:19.388Z,7.02
2017-04-18T07:44:17.907Z,6.96
2017-04-18T07:45:16.789Z,7.02
2017-04-18T07:46:15.350Z,6.98
2017-04-18T07:47:13.900Z,7.00
2017-04-18T07:48:12.426Z,7.02
2017-04-18T07:49:10.982Z,7.05
2017-04-18T07:50:09.580Z,7.20
2017-04-18T07:51:08.639Z,7.17
2017-04-18T07:52:07.167Z,7.17
2017-04-18T07:53:05.844Z,7.16
2017-04-18T07:54:04.466Z,7.14
2017-04-18T07:55:03.029Z,7.17
2017-04-18T07:56:01.527Z,7.21
2017-04-18T07:57:00.274Z,7.21
2017-04-18T07:57:58.788Z,7.33
2017-04-18T07:58:57.306Z,7.34
2017-04-18T07:59:55.908Z,7.51
2017-04-18T08:00:54.443Z,7.72
2017-04-18T08:01:52.991Z,7.61
2017-04-18T08:02:51.687Z,7.67
2017-04-18T08:03:50.187Z,7.83
2017-04-18T08:04:48.696Z,7.69
2017-04-18T08:05:47.226Z,7.90
2017-04-18T08:06:45.816Z,7.89
2017-04-18T08:07:44.522Z,8.00
2017-04-18T08:08:43.359Z,8.08
2017-04-18T08:09:41.882Z,8.17
2017-04-18T08:10:40.491Z,8.34
2017-04-18T08:11:39.117Z,8.38
2017-04-18T08:12:37.725Z,8.40
2017-04-18T08:13:36.215Z,8.35
2017-04-18T08:14:35.000Z,8.32
2017-04-18T08:15:33.531Z,8.31
2017-04-18T08:16:32.028Z,8.37
2017-04-18T08:17:30.519Z,8.38
2017-04-18T08:18:29.011Z,8.36
2017-04-18T08:19:27.507Z,8.43
2017-04-18T08:20:26.080Z,8.61
2017-04-18T08:21:24.618Z,8.44
2017-04-18T08:22:23.238Z,8.45
2017-04-18T08:23:21.892Z,8.49
2017-04-18T08:24:20.575Z,8.63
2017-04-18T08:25:19.507Z,8.54
2017-04-18T08:26:18.023Z,8.68
2017-04-18T08:27:16.531Z,8.89
2017-04-18T08:28:15.061Z,8.90
2017-04-18T08:29:13.571Z,8.88
2017-04-18T08:30:12.074Z,8.83
2017-04-18T08:31:10.842Z,8.73
2017-04-18T08:32:09.331Z,8.86
2017-04-18T08:33:07.848Z,8.88
2017-04-18T08:34:06.423Z,8.88
2017-04-18T08:35:04.975Z,8.69
2017-04-18T08:36:03.511Z,8.68
2017-04-18T08:37:02.280Z,8.68
2017-04-18T08:38:00.862Z,8.62
2017-04-18T08:38:59.319Z,8.53
2017-04-18T08:39:57.879Z,8.73
2017-04-18T08:40:56.465Z,8.60
2017-04-18T08:41:55.069Z,8.64
2017-04-18T08:42:53.830Z,8.80
2017-04-18T08:43:52.435Z,8.73
2017-04-18T08:44:51.108Z,8.62
2017-04-18T08:45:49.646Z,8.71
2017-04-18T08:46:48.178Z,8.85
2017-04-18T08:47:46.723Z,8.97
2017-04-18T08:48:45.569Z,9.17
2017-04-18T08:49:44.125Z,9.08
2017-04-18T08:50:42.669Z,9.25
2017-04-18T08:51:41.164Z,9.22
2017-04-18T08:52:39.774Z,9.06
2017-04-18T08:53:38.294Z,9.08
2017-04-18T08:54:37.011Z,9.16
2017-04-18T08:55:35.519Z,9.18
2017-04-18T08:56:34.063Z,9.21
2017-04-18T08:57:32.586Z,9.08
2017-04-18T08:58:31.174Z,9.09
2017-04-18T08:59:29.739Z,9.02
2017-04-18T09:00:28.446Z,9.02
2017-04-18T09:01:27.107Z,8.89
2017-04-18T09:02:25.888Z,8.99
2017-04-18T09:03:24.415Z,8.97
2017-04-18T09:04:22.932Z,9.12
2017-04-18T09:05:21.443Z,9.03
2017-04-18T09:06:20.379Z,9.18
2017-04-18T09:07:18.902Z,9.45
2017-04-18T09:08:17.594Z,9.47
2017-04-18T09:09:16.221Z,9.67
2017-04-18T09:10:14.851Z,9.72
2017-04-18T09:11:13.507Z,9.88
2017-04-18T09:12:12.435Z,9.99
2017-04-18T09:13:10.934Z,10.02
2017-04-18T09:14:09.468Z,10.06
2017-04-18T09:15:08.031Z,10.12
2017-04-18T09:16:06.643Z,9.88
2017-04-18T09:17:05.215Z,9.92
2017-04-18T09:18:04.209Z,9.90
2017-04-18T09:19:02.765Z,9.93
2017-04-18T09:20:01.286Z,9.96
2017-04-18T09:20:59.950Z,9.99
2017-04-18T09:21:58.618Z,9.94
2017-04-18T09:22:57.220Z,10.00
2017-04-18T09:23:56.138Z,10.02
2017-04-18T09:24:54.718Z,10.16
2017-04-18T09:25:53.259Z,10.20
2017-04-18T09:26:51.836Z,10.18
2017-04-18T09:27:50.360Z,10.35
2017-04-18T09:28:48.903Z,10.26
2017-04-18T09:29:47.595Z,10.16
2017-04-18T09:30:46.156Z,9.84
2017-04-18T09:31:44.679Z,9.80
2017-04-18T09:32:43.296Z,9.69
2017-04-18T09:33:41.870Z,9.95
2017-04-18T09:34:40.408Z,9.78
2017-04-18T09:35:39.217Z,9.80
2017-04-18T09:36:37.817Z,9.88
2017-04-18T09:37:36.335Z,9.70
2017-04-18T09:38:35.196Z,9.80
2017-04-18T09:39:33.731Z,9.87
2017-04-18T09:40:32.508Z,9.87
2017-04-18T09:41:31.471Z,9.80
2017-04-18T09:42:30.054Z,9.76
2017-04-18T09:43:28.635Z,9.66
2017-04-18T09:44:27.232Z,9.71
2017-04-18T09:45:25.763Z,9.78
2017-04-18T09:46:24.272Z,9.93
2017-04-18T09:47:22.998Z,9.98
2017-04-18T09:48:21.519Z,9.91
2017-04-18T09:49:20.139Z,9.91
2017-04-18T09:50:18.697Z,9.88
2017-04-18T09:51:17.479Z,9.86
2017-04-18T09:52:16.106Z,9.93
2017-04-18T09:53:14.853Z,10.05
2017-04-18T09:54:13.426Z,10.22
2017-04-18T09:55:11.976Z,10.30
2017-04-18T09:56:10.494Z,10.34
2017-04-18T09:57:09.007Z,10.37
2017-04-18T09:58:07.650Z,10.37
2017-04-18T09:59:06.374Z,10.53
2017-04-18T10:00:05.017Z,10.72
2017-04-18T10:01:03.547Z,10.57
2017-04-18T10:02:02.156Z,10.59
2017-04-18T10:03:00.828Z,10.64
2017-04-18T10:03:59.408Z,10.60
2017-04-18T10:04:58.084Z,10.48
2017-04-18T10:05:56.656Z,10.31
2017-04-18T10:06:55.272Z,10.33
2017-04-18T10:07:53.895Z,10.17
2017-04-18T10:08:52.433Z,10.07
2017-04-18T10:09:51.219Z,10.06
2017-04-18T10:10:49.792Z,10.22
2017-04-18T10:11:48.327Z,10.42
2017-04-18T10:12:46.873Z,10.61
2017-04-18T10:13:45.426Z,10.86
2017-04-18T10:14:44.117Z,10.96
2017-04-18T10:15:42.692Z,11.15
2017-04-18T10:16:41.587Z,11.31
2017-04-18T10:17:40.102Z,11.18
2017-04-18T10:18:38.611Z,11.15
2017-04-18T10:19:37.143Z,10.86
2017-04-18T10:20:36.040Z,10.84
2017-04-18T10:21:34.651Z,10.77
2017-04-18T10:22:33.176Z,10.91
2017-04-18T10:23:31.778Z,11.09
2017-04-18T10:24:30.281Z,11.20
2017-04-18T10:25:28.808Z,11.39
2017-04-18T10:26:27.628Z,11.45
2017-04-18T10:27:26.187Z,11.62
2017-04-18T10:28:24.717Z,11.47
2017-04-18T10:29:23.267Z,11.48
2017-04-18T10:30:21.926Z,11.56
2017-04-18T10:31:20.466Z,11.64
2017-04-18T10:32:19.386Z,11.47
2017-04-18T10:33:17.919Z,11.38
2017-04-18T10:34:16.519Z,11.58
2017-04-18T10:35:15.136Z,11.77
2017-04-18T10:36:13.747Z,11.62
2017-04-18T10:37:12.339Z,11.58
2017-04-18T10:38:11.035Z,11.48
2017-04-18T10:39:09.678Z,11.42
2017-04-18T10:40:08.212Z,11.29
2017-04-18T10:41:06.791Z,11.19
2017-04-18T10:42:05.392Z,10.99
2017-04-18T10:43:03.994Z,11.14
2017-04-18T10:44:03.004Z,10.88
2017-04-18T10:45:01.712Z,10.90
2017-04-18T10:46:00.300Z,11.00
2017-04-18T10:46:58.831Z,11.04
2017-04-18T10:47:57.372Z,11.33
2017-04-18T10:48:55.923Z,11.35
2017-04-18T10:49:54.866Z,11.39
2017-04-18T10:50:53.470Z,11.51
2017-04-18T10:51:52.099Z,11.59
2017-04-18T10:52:50.710Z,11.83
2017-04-18T10:53:49.339Z,11.54
2017-04-18T10:54:47.935Z,11.46
2017-04-18T10:55:46.812Z,11.55
2017-04-18T10:56:45.414Z,11.81
2017-04-18T10:57:43.959Z,12.00
2017-04-18T10:58:42.512Z,11.90
2017-04-18T10:59:41.027Z,11.91
2017-04-18T11:00:39.624Z,11.69
2017-04-18T11:01:38.347Z,11.62
2017-04-18T11:02:36.871Z,11.51
2017-04-18T11:03:35.435Z,11.69
2017-04-18T11:04:33.955Z,11.74
2017-04-18T11:05:32.508Z,11.53
2017-04-18T11:06:31.049Z,11.44
2017-04-18T11:07:29.993Z,11.32
2017-04-18T11:08:28.533Z,11.34
2017-04-18T11:09:27.063Z,11.33
2017-04-18T11:10:25.657Z,11.43
2017-04-18T11:11:24.223Z,11.42
2017-04-18T11:12:22.787Z,11.33
2017-04-18T11:13:21.736Z,11.14
2017-04-18T11:14:20.315Z,11.19
2017-04-18T11:15:18.867Z,11.13
2017-04-18T11:16:17.405Z,11.18
2017-04-18T11:17:16.000Z,11.21
2017-04-18T11:18:14.625Z,11.34
2017-04-18T11:19:13.582Z,11.66
2017-04-18T11:20:12.214Z,11.98
2017-04-18T11:21:10.802Z,12.32
2017-04-18T11:22:09.359Z,12.54
2017-04-18T11:23:07.920Z,12.76
2017-04-18T11:24:06.436Z,12.75
2017-04-18T11:25:05.352Z,12.75
2017-04-18T11:26:03.918Z,12.47
2017-04-18T11:27:02.499Z,12.35
2017-04-18T11:28:01.045Z,12.28
2017-04-18T11:28:59.651Z,12.03
2017-04-18T11:29:58.232Z,11.73
2017-04-18T11:30:56.904Z,11.62
2017-04-18T11:31:55.954Z,11.46
2017-04-18T11:32:54.499Z,11.17
2017-04-18T11:33:53.047Z,10.79
2017-04-18T11:34:51.607Z,10.66
2017-04-18T11:35:50.178Z,10.60
2017-04-18T11:36:48.794Z,10.43
2017-04-18T11:37:47.431Z,10.17
2017-04-18T11:38:46.002Z,10.33
2017-04-18T11:39:44.602Z,10.23
2017-04-18T11:40:43.173Z,10.24
2017-04-18T11:41:41.770Z,10.25
2017-04-18T11:42:40.325Z,10.38
2017-04-18T11:43:38.865Z,10.33
2017-04-18T11:44:37.607Z,10.26
2017-04-18T11:45:36.165Z,10.20
2017-04-18T11:46:34.699Z,10.18
2017-04-18T11:47:34.121Z,10.02
2017-04-18T11:48:33.118Z,9.85
2017-04-18T11:49:31.660Z,9.86
2017-04-18T11:50:30.326Z,9.88
2017-04-18T11:51:28.855Z,9.87
2017-04-18T11:52:27.519Z,9.91
2017-04-18T11:53:26.059Z,10.04
2017-04-18T11:54:24.639Z,10.24
2017-04-18T11:55:23.175Z,10.92
2017-04-18T11:56:21.747Z,11.25
2017-04-18T11:57:20.315Z,11.79
2017-04-18T11:58:18.823Z,12.27
2017-04-18T11:59:17.339Z,12.50
2017-04-18T12:00:16.285Z,12.75
2017-04-18T12:01:14.896Z,13.17
2017-04-18T12:02:13.488Z,13.23
2017-04-18T12:03:12.021Z,13.05
2017-04-18T12:04:10.544Z,12.89
2017-04-18T12:05:09.054Z,12.78
2017-04-18T12:06:07.597Z,12.62
2017-04-18T12:07:06.139Z,12.55
2017-04-18T12:08:04.707Z,12.39
2017-04-18T12:09:03.401Z,12.21
2017-04-18T12:10:01.940Z,11.80
2017-04-18T12:11:00.799Z,11.74
2017-04-18T12:11:59.367Z,11.60
2017-04-18T12:12:57.904Z,11.42
2017-04-18T12:13:56.435Z,11.34
2017-04-18T12:14:54.987Z,11.34
2017-04-18T12:15:53.603Z,11.06
2017-04-18T12:16:52.461Z,11.14
2017-04-18T12:17:51.072Z,10.92
2017-04-18T12:18:49.609Z,10.97
2017-04-18T12:19:48.157Z,11.07
2017-04-18T12:20:46.778Z,11.15
2017-04-18T12:21:45.300Z,11.52
2017-04-18T12:22:43.873Z,11.45
2017-04-18T12:23:42.431Z,11.25
2017-04-18T12:24:41.002Z,11.17
2017-04-18T12:25:39.643Z,11.05
2017-04-18T12:26:38.172Z,11.15
2017-04-18T12:27:36.876Z,11.44
2017-04-18T12:28:35.411Z,11.75
2017-04-18T12:29:33.981Z,12.11
2017-04-18T12:30:32.524Z,12.46
2017-04-18T12:31:31.063Z,13.12
2017-04-18T12:32:29.591Z,13.53
2017-04-18T12:33:28.205Z,13.88
2017-04-18T12:34:26.875Z,14.44
2017-04-18T12:35:25.539Z,14.38
2017-04-18T12:36:24.182Z,14.65
2017-04-18T12:37:22.774Z,14.71
2017-04-18T12:38:21.427Z,14.55
2017-04-18T12:39:20.139Z,14.36
2017-04-18T12:40:18.758Z,14.18
2017-04-18T12:41:17.356Z,14.31
2017-04-18T12:42:15.923Z,14.47
2017-04-18T12:43:14.669Z,14.04
2017-04-18T12:44:13.824Z,14.16
2017-04-18T12:45:12.369Z,14.14
2017-04-18T12:46:10.958Z,14.16
2017-04-18T12:47:09.493Z,14.30
2017-04-18T12:48:08.075Z,13.29
2017-04-18T12:49:06.626Z,13.09
2017-04-18T12:50:05.580Z,12.79
2017-04-18T12:51:04.192Z,12.78
2017-04-18T12:52:02.755Z,12.40
2017-04-18T12:53:01.299Z,12.14
2017-04-18T12:53:59.798Z,11.92
2017-04-18T12:54:58.319Z,11.99
2017-04-18T12:55:56.911Z,11.86